Terminal Aerodrome Forecast
Issued by NWS

Home | Current Version | Previous Version | Graphics & Text | Print | Product List | Glossary On
Versions: 1 2 3 4 5 6 7 8 9 10 11 12 13 14 15 16 17 18 19 20 21 22 23 24 25 26 27
476
FTUS43 KBIS 102337
TAFDIK
TAF
KDIK 102337Z 1100/1124 35013KT P6SM OVC013
     FM110500 10005KT P6SM OVC010
     FM111000 14004KT 3SM -SN BR OVC015
     FM111200 15004KT 2SM -SN BR OVC006
     FM112000 05005KT 3SM -SN BR OVC008=

USA.gov is the U.S. government's official web portal to all federal, state and local government web resources and services.